createdAt,value
2022-09-29T00:00:27.819Z,99655.34
2022-09-29T00:01:59.300Z,99645.75
2022-09-29T00:03:32.269Z,99655.53
2022-09-29T00:05:03.906Z,99651.38
2022-09-29T00:06:35.361Z,99650.59
2022-09-29T00:08:06.785Z,99650.59
2022-09-29T00:09:38.243Z,99655.84
2022-09-29T00:11:10.030Z,99649.75
2022-09-29T00:12:41.456Z,99650.69
2022-09-29T00:14:12.908Z,99659.41
2022-09-29T00:15:44.569Z,99656.88
2022-09-29T00:17:16.313Z,99648.03
2022-09-29T00:18:49.107Z,99644.56
2022-09-29T00:20:20.536Z,99648.13
2022-09-29T00:21:51.992Z,99651.59
2022-09-29T00:23:23.753Z,99660.41
2022-09-29T00:24:55.191Z,99650.84
2022-09-29T00:26:26.696Z,99651.69
2022-09-29T00:27:58.184Z,99651.69
2022-09-29T00:29:29.632Z,99650.13
2022-09-29T00:31:01.474Z,99642.53
2022-09-29T00:32:32.920Z,99648.00
2022-09-29T00:34:05.840Z,99649.00
2022-09-29T00:35:37.257Z,99642.91
2022-09-29T00:37:08.708Z,99655.28
2022-09-29T00:38:40.736Z,99642.13
2022-09-29T00:40:12.208Z,99647.38
2022-09-29T00:41:43.669Z,99643.09
2022-09-29T00:43:19.433Z,99650.44
2022-09-29T00:45:02.462Z,99647.88
2022-09-29T00:46:37.027Z,99649.75
2022-09-29T00:48:12.742Z,99651.44
2022-09-29T00:49:48.479Z,99644.47
2022-09-29T00:51:20.342Z,99646.19
2022-09-29T00:52:54.039Z,99641.78
2022-09-29T00:54:29.539Z,99649.81
2022-09-29T00:56:02.940Z,99649.16
2022-09-29T00:57:36.741Z,99656.06
2022-09-29T00:59:09.723Z,99657.69
2022-09-29T01:00:41.495Z,99658.53
2022-09-29T01:02:13.307Z,99649.03
2022-09-29T01:03:46.453Z,99655.16
2022-09-29T01:05:21.506Z,99654.16
2022-09-29T01:06:55.168Z,99654.00
2022-09-29T01:08:30.710Z,99651.28
2022-09-29T01:10:02.252Z,99655.63
2022-09-29T01:11:34.134Z,99653.00
2022-09-29T01:13:05.595Z,99652.22
2022-09-29T01:14:38.053Z,99653.06
2022-09-29T01:16:09.646Z,99650.66
2022-09-29T01:17:41.125Z,99653.44
2022-09-29T01:19:16.795Z,99655.34
2022-09-29T01:20:53.058Z,99648.38
2022-09-29T01:22:35.758Z,99650.00
2022-09-29T01:24:30.882Z,99649.88
2022-09-29T01:26:23.336Z,99651.09
2022-09-29T01:28:02.643Z,99654.72
2022-09-29T01:29:52.886Z,99658.34
2022-09-29T01:31:28.918Z,99666.28
2022-09-29T01:33:18.049Z,99654.94
2022-09-29T01:34:55.804Z,99665.44
2022-09-29T01:36:33.023Z,99667.22
2022-09-29T01:38:10.809Z,99654.09
2022-09-29T01:39:47.528Z,99665.44
2022-09-29T01:41:25.376Z,99653.22
2022-09-29T01:43:01.627Z,99661.13
2022-09-29T01:44:35.504Z,99670.00
2022-09-29T01:46:10.158Z,99659.66
2022-09-29T01:47:46.027Z,99670.25
2022-09-29T01:49:18.841Z,99659.81
2022-09-29T01:50:53.436Z,99666.94
2022-09-29T01:52:26.814Z,99659.97
2022-09-29T01:54:02.476Z,99664.28
2022-09-29T01:55:35.439Z,99662.59
2022-09-29T01:57:09.441Z,99659.19
2022-09-29T01:58:47.228Z,99659.28
2022-09-29T02:00:19.918Z,99662.81
2022-09-29T02:01:57.768Z,99662.81
2022-09-29T02:03:35.360Z,99661.13
2022-09-29T02:05:10.939Z,99668.19
2022-09-29T02:06:45.339Z,99670.09
2022-09-29T02:08:18.845Z,99664.06
2022-09-29T02:09:52.277Z,99664.13
2022-09-29T02:11:23.856Z,99674.66
2022-09-29T02:12:56.933Z,99674.78
2022-09-29T02:14:30.103Z,99662.72
2022-09-29T02:16:02.779Z,99670.72
2022-09-29T02:17:36.035Z,99671.63
2022-09-29T02:19:11.463Z,99676.88
2022-09-29T02:20:42.952Z,99676.19
2022-09-29T02:22:14.838Z,99679.88
2022-09-29T02:23:46.278Z,99677.25
2022-09-29T02:25:19.148Z,99675.56
2022-09-29T02:26:51.576Z,99682.66
2022-09-29T02:28:23.360Z,99676.72
2022-09-29T02:29:55.070Z,99678.50
2022-09-29T02:31:26.567Z,99682.03
2022-09-29T02:32:58.020Z,99680.19
2022-09-29T02:34:31.958Z,99678.25
2022-09-29T02:36:08.821Z,99679.03
2022-09-29T02:37:49.374Z,99681.66
2022-09-29T02:39:27.421Z,99672.84
2022-09-29T02:41:02.906Z,99675.56
2022-09-29T02:42:38.741Z,99678.25
2022-09-29T02:44:25.116Z,99673.06
2022-09-29T02:46:06.975Z,99670.44
2022-09-29T02:47:45.495Z,99666.91
2022-09-29T02:49:28.771Z,99665.19
2022-09-29T02:51:10.592Z,99667.94
2022-09-29T02:52:46.448Z,99679.41
2022-09-29T02:54:27.233Z,99660.28
2022-09-29T02:56:03.725Z,99678.78
2022-09-29T02:57:41.550Z,99670.19
2022-09-29T02:59:15.470Z,99672.97
2022-09-29T03:00:47.299Z,99668.94
2022-09-29T03:02:23.012Z,99669.78
2022-09-29T03:03:54.484Z,99675.03
2022-09-29T03:05:26.076Z,99676.69
2022-09-29T03:06:58.977Z,99672.22
2022-09-29T03:08:30.478Z,99673.91
2022-09-29T03:10:01.927Z,99665.19
2022-09-29T03:11:33.410Z,99673.06
2022-09-29T03:13:05.418Z,99673.06
2022-09-29T03:14:36.821Z,99674.78
2022-09-29T03:16:08.355Z,99670.34
2022-09-29T03:17:40.214Z,99674.78
2022-09-29T03:19:11.608Z,99670.50
2022-09-29T03:20:43.039Z,99668.94
2022-09-29T03:22:15.953Z,99677.00
2022-09-29T03:23:47.392Z,99671.22
2022-09-29T03:25:18.975Z,99678.25
2022-09-29T03:26:50.400Z,99680.00
2022-09-29T03:28:21.814Z,99676.69
2022-09-29T03:29:53.275Z,99681.22
2022-09-29T03:31:24.744Z,99675.97
2022-09-29T03:32:56.344Z,99678.59
2022-09-29T03:34:27.808Z,99675.03
2022-09-29T03:35:59.517Z,99677.97
2022-09-29T03:37:32.351Z,99679.88
2022-09-29T03:39:03.862Z,99679.75
2022-09-29T03:40:35.375Z,99676.19
2022-09-29T03:42:06.844Z,99680.34
2022-09-29T03:43:38.328Z,99680.22
2022-09-29T03:45:10.012Z,99676.81
2022-09-29T03:46:41.435Z,99683.91
2022-09-29T03:48:12.876Z,99679.03
2022-09-29T03:49:44.348Z,99683.63
2022-09-29T03:51:15.765Z,99676.69
2022-09-29T03:52:48.574Z,99675.56
2022-09-29T03:54:20.112Z,99681.53
2022-09-29T03:55:51.797Z,99677.91
2022-09-29T03:57:23.234Z,99683.06
2022-09-29T03:58:54.779Z,99690.06
2022-09-29T04:00:26.244Z,99692.69
2022-09-29T04:01:57.766Z,99695.31
2022-09-29T04:03:29.343Z,99703.41
2022-09-29T04:05:00.791Z,99693.97
2022-09-29T04:06:32.253Z,99703.56
2022-09-29T04:08:05.060Z,99697.53
2022-09-29T04:09:36.569Z,99701.00
2022-09-29T04:11:08.125Z,99694.84
2022-09-29T04:12:39.542Z,99699.16
2022-09-29T04:14:10.992Z,99689.53
2022-09-29T04:15:42.413Z,99705.19
2022-09-29T04:17:13.844Z,99693.06
2022-09-29T04:18:45.367Z,99697.47
2022-09-29T04:20:16.943Z,99696.75
2022-09-29T04:21:48.439Z,99698.44
2022-09-29T04:23:21.290Z,99700.16
2022-09-29T04:24:52.751Z,99704.47
2022-09-29T04:26:24.247Z,99700.00
2022-09-29T04:27:55.823Z,99700.00
2022-09-29T04:29:27.236Z,99699.94
2022-09-29T04:30:58.759Z,99705.25
2022-09-29T04:32:30.192Z,99702.63
2022-09-29T04:34:01.757Z,99705.41
2022-09-29T04:35:36.800Z,99708.22
2022-09-29T04:37:11.313Z,99707.59
2022-09-29T04:38:44.092Z,99707.81
2022-09-29T04:40:16.813Z,99716.72
2022-09-29T04:41:48.265Z,99711.47
2022-09-29T04:43:19.726Z,99713.25
2022-09-29T04:44:51.292Z,99715.09
2022-09-29T04:46:23.302Z,99715.00
2022-09-29T04:47:54.794Z,99714.16
2022-09-29T04:49:26.368Z,99719.41
2022-09-29T04:50:57.789Z,99722.75
2022-09-29T04:52:29.239Z,99724.38
2022-09-29T04:54:02.140Z,99724.25
2022-09-29T04:55:33.565Z,99719.78
2022-09-29T04:57:05.211Z,99719.78
2022-09-29T04:58:36.710Z,99716.16
2022-09-29T05:00:09.259Z,99717.78
2022-09-29T05:01:40.725Z,99725.59
2022-09-29T05:03:12.203Z,99723.81
2022-09-29T05:04:43.681Z,99728.44
2022-09-29T05:06:15.156Z,99720.56
2022-09-29T05:07:48.140Z,99724.13
2022-09-29T05:09:24.606Z,99732.75
2022-09-29T05:10:56.651Z,99729.25
2022-09-29T05:12:28.163Z,99733.59
2022-09-29T05:14:00.481Z,99736.16
2022-09-29T05:15:31.933Z,99740.47
2022-09-29T05:17:03.777Z,99739.56
2022-09-29T05:18:35.260Z,99742.19
2022-09-29T05:20:06.910Z,99739.69
2022-09-29T05:21:38.345Z,99734.81
2022-09-29T05:23:10.295Z,99747.91
2022-09-29T05:24:43.271Z,99739.19
2022-09-29T05:26:14.723Z,99744.44
2022-09-29T05:27:46.475Z,99748.91
2022-09-29T05:29:18.176Z,99748.13
2022-09-29T05:30:49.657Z,99756.03
2022-09-29T05:32:21.118Z,99755.19
2022-09-29T05:33:52.634Z,99748.19
2022-09-29T05:35:24.151Z,99751.72
2022-09-29T05:36:56.407Z,99756.09
2022-09-29T05:38:28.128Z,99761.50
2022-09-29T05:40:01.195Z,99759.03
2022-09-29T05:41:33.234Z,99757.50
2022-09-29T05:43:05.642Z,99759.28
2022-09-29T05:44:37.401Z,99761.91
2022-09-29T05:46:09.981Z,99768.91
2022-09-29T05:47:42.652Z,99768.84
2022-09-29T05:49:14.127Z,99762.03
2022-09-29T05:50:46.049Z,99772.44
2022-09-29T05:52:17.501Z,99768.06
2022-09-29T05:53:49.039Z,99763.81
2022-09-29T05:55:21.847Z,99775.00
2022-09-29T05:56:53.340Z,99766.28
2022-09-29T05:58:24.821Z,99765.44
2022-09-29T05:59:56.274Z,99767.22
2022-09-29T06:01:27.791Z,99778.47
2022-09-29T06:03:00.081Z,99773.19
2022-09-29T06:04:31.795Z,99778.34
2022-09-29T06:06:06.698Z,99774.81
2022-09-29T06:07:38.222Z,99778.16
2022-09-29T06:09:09.749Z,99772.00
2022-09-29T06:10:42.560Z,99778.09
2022-09-29T06:12:14.021Z,99778.00
2022-09-29T06:13:46.501Z,99781.47
2022-09-29T06:15:18.099Z,99771.94
2022-09-29T06:16:50.538Z,99779.72
2022-09-29T06:18:21.993Z,99775.31
2022-09-29T06:19:53.537Z,99774.41
2022-09-29T06:21:25.801Z,99776.88
2022-09-29T06:22:57.301Z,99775.06
2022-09-29T06:24:28.748Z,99778.53
2022-09-29T06:26:04.422Z,99771.50
2022-09-29T06:27:35.901Z,99780.22
2022-09-29T06:29:07.608Z,99779.31
2022-09-29T06:30:39.050Z,99786.25
2022-09-29T06:32:10.947Z,99781.81
2022-09-29T06:33:43.106Z,99787.06
2022-09-29T06:35:33.148Z,99786.03
2022-09-29T06:37:23.213Z,99787.66
2022-09-29T06:38:54.686Z,99790.94
2022-09-29T06:40:28.032Z,99791.75
2022-09-29T06:42:01.114Z,99800.41
2022-09-29T06:43:32.529Z,99794.06
2022-09-29T06:45:04.386Z,99798.41
2022-09-29T06:46:35.931Z,99796.63
2022-09-29T06:48:09.840Z,99797.47
2022-09-29T06:49:49.874Z,99799.19
2022-09-29T06:51:42.881Z,99795.69
2022-09-29T06:53:17.204Z,99796.56
2022-09-29T06:54:48.758Z,99803.38
2022-09-29T06:56:20.255Z,99803.38
2022-09-29T06:57:53.104Z,99806.66
2022-09-29T06:59:24.653Z,99804.72
2022-09-29T07:00:56.156Z,99808.19
2022-09-29T07:02:27.700Z,99808.97
2022-09-29T07:04:00.720Z,99813.19
2022-09-29T07:05:32.768Z,99809.59
2022-09-29T07:07:04.223Z,99805.88
2022-09-29T07:08:38.120Z,99804.81
2022-09-29T07:10:09.839Z,99805.75
2022-09-29T07:11:41.913Z,99812.69
2022-09-29T07:13:14.724Z,99806.66
2022-09-29T07:14:46.253Z,99813.53
2022-09-29T07:16:18.235Z,99810.00
2022-09-29T07:17:51.315Z,99812.56
2022-09-29T07:19:22.935Z,99809.88
2022-09-29T07:20:56.380Z,99806.25
2022-09-29T07:22:27.907Z,99803.25
2022-09-29T07:24:02.298Z,99804.59
2022-09-29T07:25:51.044Z,99808.56
2022-09-29T07:27:24.211Z,99812.44
2022-09-29T07:28:56.998Z,99812.16
2022-09-29T07:30:37.268Z,99809.97
2022-09-29T07:32:24.110Z,99815.72
2022-09-29T07:33:58.060Z,99802.13
2022-09-29T07:35:29.501Z,99815.91
2022-09-29T07:37:00.995Z,99813.06
2022-09-29T07:38:33.022Z,99810.31
2022-09-29T07:40:04.991Z,99807.53
2022-09-29T07:41:36.451Z,99809.88
2022-09-29T07:43:08.007Z,99810.41
2022-09-29T07:44:40.797Z,99813.72
2022-09-29T07:46:12.443Z,99813.50
2022-09-29T07:47:43.953Z,99814.97
2022-09-29T07:49:15.517Z,99822.53
2022-09-29T07:50:47.075Z,99819.69
2022-09-29T07:52:18.570Z,99818.56
2022-09-29T07:53:50.197Z,99825.31
2022-09-29T07:55:21.658Z,99829.50
2022-09-29T07:56:53.087Z,99829.25
2022-09-29T07:58:24.646Z,99825.59
2022-09-29T07:59:58.542Z,99828.81
2022-09-29T08:01:31.005Z,99836.19
2022-09-29T08:03:02.871Z,99828.16
2022-09-29T08:04:34.323Z,99833.09
2022-09-29T08:06:06.228Z,99835.47
2022-09-29T08:07:37.786Z,99835.16
2022-09-29T08:09:09.284Z,99845.38
2022-09-29T08:10:51.151Z,99845.03
2022-09-29T08:12:30.848Z,99841.38
2022-09-29T08:14:04.885Z,99843.78
2022-09-29T08:15:37.685Z,99850.31
2022-09-29T08:17:09.155Z,99846.16
2022-09-29T08:18:40.898Z,99843.19
2022-09-29T08:20:12.436Z,99844.97
2022-09-29T08:21:44.051Z,99849.38
2022-09-29T08:23:15.708Z,99844.88
2022-09-29T08:24:47.124Z,99852.34
2022-09-29T08:26:27.878Z,99844.19
2022-09-29T08:28:04.924Z,99851.41
2022-09-29T08:29:45.796Z,99851.84
2022-09-29T08:31:21.407Z,99853.69
2022-09-29T08:32:53.409Z,99857.59
2022-09-29T08:34:24.988Z,99856.25
2022-09-29T08:35:57.223Z,99860.97
2022-09-29T08:37:30.989Z,99859.31
2022-09-29T08:39:05.970Z,99861.22
2022-09-29T08:40:38.325Z,99862.66
2022-09-29T08:42:15.529Z,99860.72
2022-09-29T08:43:49.245Z,99858.63
2022-09-29T08:45:24.998Z,99862.63
2022-09-29T08:47:08.231Z,99860.66
2022-09-29T08:48:55.640Z,99864.59
2022-09-29T08:50:31.476Z,99868.75
2022-09-29T08:52:15.258Z,99862.44
2022-09-29T08:54:00.341Z,99871.69
2022-09-29T08:55:38.725Z,99872.94
2022-09-29T08:57:16.815Z,99876.78
2022-09-29T08:58:48.280Z,99872.94
2022-09-29T09:00:20.690Z,99869.34
2022-09-29T09:02:02.126Z,99875.00
2022-09-29T09:03:45.321Z,99871.13
2022-09-29T09:05:22.312Z,99878.59
2022-09-29T09:06:57.256Z,99872.09
2022-09-29T09:08:37.831Z,99876.88
2022-09-29T09:10:15.176Z,99881.97
2022-09-29T09:12:00.923Z,99873.84
2022-09-29T09:13:42.103Z,99879.91
2022-09-29T09:15:20.171Z,99875.56
2022-09-29T09:16:56.261Z,99883.47
2022-09-29T09:18:45.693Z,99886.88
2022-09-29T09:20:24.237Z,99880.25
2022-09-29T09:22:01.171Z,99895.50
2022-09-29T09:23:38.445Z,99889.84
2022-09-29T09:25:18.776Z,99887.00
2022-09-29T09:26:50.229Z,99885.31
2022-09-29T09:28:26.957Z,99881.72
2022-09-29T09:30:06.738Z,99892.94
2022-09-29T09:31:40.547Z,99887.25
2022-09-29T09:33:28.654Z,99888.75
2022-09-29T09:35:22.115Z,99892.81
2022-09-29T09:37:07.204Z,99881.81
2022-09-29T09:38:44.385Z,99880.00
2022-09-29T09:40:18.817Z,99876.63
2022-09-29T09:41:51.706Z,99879.25
2022-09-29T09:43:26.922Z,99890.50
2022-09-29T09:45:00.895Z,99892.00
2022-09-29T09:46:36.457Z,99884.72
2022-09-29T09:48:11.961Z,99879.75
2022-09-29T09:49:45.626Z,99879.38
2022-09-29T09:51:26.020Z,99889.72
2022-09-29T09:53:00.638Z,99882.09
2022-09-29T09:54:35.364Z,99884.66
2022-09-29T09:56:13.556Z,99887.16
2022-09-29T09:58:00.305Z,99883.66
2022-09-29T09:59:37.517Z,99893.66
2022-09-29T10:01:12.287Z,99885.63
2022-09-29T10:02:45.917Z,99886.31
2022-09-29T10:04:17.519Z,99888.09
2022-09-29T10:05:49.492Z,99884.88
2022-09-29T10:07:22.557Z,99891.88
2022-09-29T10:08:55.507Z,99890.06
2022-09-29T10:10:28.730Z,99881.00
2022-09-29T10:12:00.586Z,99884.84
2022-09-29T10:13:32.311Z,99882.72
2022-09-29T10:15:05.376Z,99887.69
2022-09-29T10:16:41.613Z,99886.44
2022-09-29T10:18:15.773Z,99888.88
2022-09-29T10:19:55.329Z,99888.69
2022-09-29T10:21:36.087Z,99889.19
2022-09-29T10:23:21.154Z,99884.34
2022-09-29T10:24:57.424Z,99889.53
2022-09-29T10:26:32.366Z,99885.69
2022-09-29T10:28:03.934Z,99889.00
2022-09-29T10:29:38.583Z,99887.94
2022-09-29T10:31:17.703Z,99886.88
2022-09-29T10:32:50.639Z,99884.63
2022-09-29T10:34:24.272Z,99888.13
2022-09-29T10:36:07.699Z,99892.81
2022-09-29T10:37:41.787Z,99894.94
2022-09-29T10:39:28.100Z,99888.69
2022-09-29T10:41:04.578Z,99900.44
2022-09-29T10:42:36.577Z,99898.09
2022-09-29T10:44:19.204Z,99893.31
2022-09-29T10:45:50.971Z,99886.66
2022-09-29T10:47:23.123Z,99893.94
2022-09-29T10:49:08.478Z,99895.09
2022-09-29T10:50:49.820Z,99886.41
2022-09-29T10:52:23.713Z,99895.16
2022-09-29T10:53:55.197Z,99896.06
2022-09-29T10:55:27.891Z,99900.47
2022-09-29T10:57:11.317Z,99900.06
2022-09-29T10:58:52.641Z,99896.16
2022-09-29T11:00:31.473Z,99897.72
2022-09-29T11:02:03.106Z,99898.81
2022-09-29T11:03:36.876Z,99897.22
2022-09-29T11:05:16.909Z,99905.41
2022-09-29T11:06:49.127Z,99910.28
2022-09-29T11:08:25.753Z,99907.66
2022-09-29T11:09:57.342Z,99899.47
2022-09-29T11:11:29.999Z,99909.03
2022-09-29T11:13:27.063Z,99907.94
2022-09-29T11:14:59.087Z,99904.94
2022-09-29T11:16:31.632Z,99901.47
2022-09-29T11:18:17.643Z,99907.09
2022-09-29T11:19:49.626Z,99905.38
2022-09-29T11:21:35.960Z,99912.50
2022-09-29T11:23:18.609Z,99915.56
2022-09-29T11:25:06.811Z,99911.19
2022-09-29T11:26:43.982Z,99910.44
2022-09-29T11:28:26.377Z,99902.31
2022-09-29T11:30:01.724Z,99910.16
2022-09-29T11:31:40.286Z,99911.44
2022-09-29T11:33:18.346Z,99914.28
2022-09-29T11:34:58.281Z,99911.44
2022-09-29T11:36:36.599Z,99913.47
2022-09-29T11:38:25.404Z,99913.16
2022-09-29T11:40:01.454Z,99921.72
2022-09-29T11:41:42.388Z,99914.63
2022-09-29T11:43:26.165Z,99911.88
2022-09-29T11:44:59.974Z,99924.91
2022-09-29T11:46:49.332Z,99926.91
2022-09-29T11:48:30.802Z,99932.19
2022-09-29T11:50:09.062Z,99927.31
2022-09-29T11:51:53.172Z,99931.44
2022-09-29T11:53:35.006Z,99922.75
2022-09-29T11:55:15.051Z,99926.47
2022-09-29T11:56:51.462Z,99926.34
2022-09-29T11:58:29.726Z,99922.44
2022-09-29T12:00:07.738Z,99928.88
2022-09-29T12:01:46.607Z,99925.19
2022-09-29T12:03:24.129Z,99924.75
2022-09-29T12:04:58.302Z,99918.31
2022-09-29T12:06:36.136Z,99922.47
2022-09-29T12:08:12.185Z,99919.06
2022-09-29T12:09:56.360Z,99917.59
2022-09-29T12:13:32.498Z,99921.31
2022-09-29T12:15:11.102Z,99921.41
2022-09-29T12:16:45.838Z,99915.13
2022-09-29T12:18:19.702Z,99913.56
2022-09-29T12:20:00.662Z,99916.31
2022-09-29T12:21:33.860Z,99910.13
2022-09-29T12:23:10.236Z,99914.66
2022-09-29T12:24:43.634Z,99908.59
2022-09-29T12:26:16.742Z,99909.50
2022-09-29T12:27:49.798Z,99918.34
2022-09-29T12:29:29.286Z,99915.63
2022-09-29T12:31:04.891Z,99921.28
2022-09-29T12:32:39.799Z,99913.75
2022-09-29T12:34:13.593Z,99906.44
2022-09-29T12:35:48.500Z,99906.56
2022-09-29T12:37:24.980Z,99912.84
2022-09-29T12:39:01.587Z,99913.59
2022-09-29T12:40:36.133Z,99920.00
2022-09-29T12:42:16.905Z,99914.97
2022-09-29T12:43:51.227Z,99916.53
2022-09-29T12:45:26.391Z,99912.88
2022-09-29T12:47:02.930Z,99913.59
2022-09-29T12:48:40.442Z,99916.31
2022-09-29T12:50:16.802Z,99913.81
2022-09-29T12:51:48.964Z,99913.78
2022-09-29T12:53:22.164Z,99920.34
2022-09-29T12:54:55.691Z,99914.03
2022-09-29T12:56:29.452Z,99909.41
2022-09-29T12:58:05.237Z,99915.69
2022-09-29T12:59:38.931Z,99909.59
2022-09-29T13:01:19.881Z,99909.66
2022-09-29T13:03:15.252Z,99913.78
2022-09-29T13:04:54.505Z,99913.06
2022-09-29T13:06:52.671Z,99918.72
2022-09-29T13:08:40.051Z,99915.25
2022-09-29T13:10:35.487Z,99897.38
2022-09-29T13:12:24.883Z,99904.41
2022-09-29T13:14:12.741Z,99908.31
2022-09-29T13:15:50.995Z,99906.56
2022-09-29T13:17:42.583Z,99909.63
2022-09-29T13:19:56.329Z,99910.34
2022-09-29T13:21:34.115Z,99911.88
2022-09-29T13:23:12.348Z,99910.75
2022-09-29T13:24:51.401Z,99903.88
2022-09-29T13:26:41.745Z,99904.44
2022-09-29T13:28:20.243Z,99910.56
2022-09-29T13:29:54.556Z,99908.59
2022-09-29T13:31:32.518Z,99908.41
2022-09-29T13:33:09.252Z,99909.59
2022-09-29T13:34:47.219Z,99913.88
2022-09-29T13:36:24.026Z,99914.22
2022-09-29T13:38:01.771Z,99921.75
2022-09-29T13:39:33.866Z,99922.63
2022-09-29T13:41:16.179Z,99923.09
2022-09-29T13:42:47.761Z,99917.94
2022-09-29T13:44:25.240Z,99916.78
2022-09-29T13:45:56.708Z,99920.75
2022-09-29T13:47:32.057Z,99924.63
2022-09-29T13:49:04.601Z,99925.25
2022-09-29T13:50:40.162Z,99928.06
2022-09-29T13:52:28.185Z,99926.69
2022-09-29T13:54:18.390Z,99926.63
2022-09-29T13:55:52.178Z,99922.88
2022-09-29T13:57:27.491Z,99931.53
2022-09-29T13:59:00.675Z,99935.91
2022-09-29T14:00:32.283Z,99935.41
2022-09-29T14:02:18.125Z,99931.88
2022-09-29T14:03:49.669Z,99938.16
2022-09-29T14:05:38.443Z,99934.56
2022-09-29T14:07:11.175Z,99936.53
2022-09-29T14:08:46.199Z,99928.97
2022-09-29T14:10:20.514Z,99932.38
2022-09-29T14:11:55.516Z,99940.03
2022-09-29T14:13:29.092Z,99936.38
2022-09-29T14:15:01.440Z,99941.72
2022-09-29T14:16:45.103Z,99943.75
2022-09-29T14:18:18.731Z,99937.94
2022-09-29T14:19:52.753Z,99948.34
2022-09-29T14:21:43.326Z,99939.78
2022-09-29T14:23:34.809Z,99940.34
2022-09-29T14:25:27.704Z,99945.41
2022-09-29T14:27:17.451Z,99954.50
2022-09-29T14:28:52.311Z,99953.31
2022-09-29T14:30:37.471Z,99953.25
2022-09-29T14:32:15.020Z,99947.06
2022-09-29T14:33:49.831Z,99946.47
2022-09-29T14:35:27.531Z,99943.63
2022-09-29T14:37:00.305Z,99947.06
2022-09-29T14:38:33.411Z,99949.13
2022-09-29T14:41:56.247Z,99953.91
2022-09-29T14:43:36.496Z,99950.22
2022-09-29T14:45:26.559Z,99961.81
2022-09-29T14:47:25.975Z,99949.31
2022-09-29T14:49:20.443Z,99959.84
2022-09-29T14:51:14.140Z,99956.28
2022-09-29T14:52:55.201Z,99956.13
2022-09-29T14:54:29.880Z,99965.19
2022-09-29T14:56:07.979Z,99966.78
2022-09-29T14:57:47.897Z,99964.00
2022-09-29T14:59:27.034Z,99962.03
2022-09-29T15:01:09.482Z,99963.66
2022-09-29T15:02:42.967Z,99967.72
2022-09-29T15:04:16.449Z,99970.94
2022-09-29T15:05:48.152Z,99972.00
2022-09-29T15:07:21.098Z,99967.59
2022-09-29T15:08:53.687Z,99973.13
2022-09-29T15:10:26.959Z,99975.25
2022-09-29T15:12:02.681Z,99976.56
2022-09-29T15:13:34.602Z,99984.00
2022-09-29T15:15:21.012Z,99992.84
2022-09-29T15:17:05.496Z,99988.00
2022-09-29T15:18:57.194Z,99986.50
2022-09-29T15:20:32.029Z,99983.28
2022-09-29T15:22:11.125Z,99993.56
2022-09-29T15:24:04.425Z,99978.94
2022-09-29T15:25:37.371Z,99987.25
2022-09-29T15:27:13.054Z,99977.97
2022-09-29T15:28:44.796Z,99980.31
2022-09-29T15:30:18.013Z,99978.63
2022-09-29T15:31:49.968Z,99982.97
2022-09-29T15:33:24.150Z,99982.88
2022-09-29T15:35:01.233Z,99979.59
2022-09-29T15:36:35.413Z,99983.72
2022-09-29T15:38:17.486Z,99986.94
2022-09-29T15:39:51.381Z,99986.59
2022-09-29T15:41:29.128Z,99989.59
2022-09-29T15:43:04.039Z,99987.69
2022-09-29T15:44:35.452Z,99989.34
2022-09-29T15:46:13.336Z,100001.16
2022-09-29T15:47:44.808Z,99997.50
2022-09-29T15:49:19.011Z,99998.06
2022-09-29T15:50:54.412Z,99997.28
2022-09-29T15:52:27.557Z,100007.06
2022-09-29T15:54:00.870Z,100000.50
2022-09-29T15:55:32.877Z,100008.16
2022-09-29T15:57:23.285Z,100010.28
2022-09-29T15:58:54.719Z,100012.94
2022-09-29T16:00:43.381Z,100015.09
2022-09-29T16:02:18.638Z,100008.66
2022-09-29T16:03:53.646Z,100011.56
2022-09-29T16:05:26.473Z,100019.03
2022-09-29T16:07:00.508Z,100012.75
2022-09-29T16:08:34.499Z,100023.56
2022-09-29T16:10:09.682Z,100026.28
2022-09-29T16:11:41.387Z,100023.91
2022-09-29T16:13:17.969Z,100022.44
2022-09-29T16:14:54.118Z,100029.88
2022-09-29T16:16:27.844Z,100029.91
2022-09-29T16:18:00.870Z,100028.03
2022-09-29T16:19:32.613Z,100031.66
2022-09-29T16:21:07.159Z,100029.41
2022-09-29T16:22:38.609Z,100031.84
2022-09-29T16:24:15.341Z,100042.25
2022-09-29T16:26:06.811Z,100033.53
2022-09-29T16:27:41.101Z,100039.59
2022-09-29T16:29:27.467Z,100038.63
2022-09-29T16:31:02.982Z,100046.38
2022-09-29T16:32:42.296Z,100047.22
2022-09-29T16:34:22.128Z,100045.16
2022-09-29T16:36:00.627Z,100044.56
2022-09-29T16:37:33.433Z,100051.03
2022-09-29T16:39:06.099Z,100052.84
2022-09-29T16:40:40.225Z,100056.47
2022-09-29T16:42:17.687Z,100060.91
2022-09-29T16:43:50.250Z,100059.84
2022-09-29T16:45:24.009Z,100065.28
2022-09-29T16:46:57.545Z,100064.84
2022-09-29T16:48:30.363Z,100061.47
2022-09-29T16:50:03.330Z,100067.09
2022-09-29T16:51:42.327Z,100063.50
2022-09-29T16:53:23.856Z,100062.66
2022-09-29T16:55:08.309Z,100069.75
2022-09-29T16:56:40.711Z,100069.88
2022-09-29T16:58:13.653Z,100074.22
2022-09-29T16:59:45.387Z,100069.00
2022-09-29T17:01:16.873Z,100071.78
2022-09-29T17:02:50.705Z,100075.38
2022-09-29T17:04:22.413Z,100067.88
2022-09-29T17:05:54.243Z,100080.81
2022-09-29T17:07:27.419Z,100076.91
2022-09-29T17:09:00.296Z,100079.56
2022-09-29T17:10:31.760Z,100076.16
2022-09-29T17:12:04.041Z,100081.34
2022-09-29T17:13:35.642Z,100080.31
2022-09-29T17:15:07.650Z,100089.81
2022-09-29T17:16:41.299Z,100083.81
2022-09-29T17:18:13.253Z,100090.91
2022-09-29T17:19:45.036Z,100099.28
2022-09-29T17:21:16.477Z,100095.56
2022-09-29T17:22:49.023Z,100094.28
2022-09-29T17:24:22.216Z,100094.69
2022-09-29T17:26:13.872Z,100100.09
2022-09-29T17:28:04.092Z,100098.59
2022-09-29T17:29:36.031Z,100106.44
2022-09-29T17:31:10.284Z,100108.13
2022-09-29T17:32:44.173Z,100104.63
2022-09-29T17:34:15.751Z,100104.53
2022-09-29T17:35:52.953Z,100104.44
2022-09-29T17:37:26.347Z,100108.03
2022-09-29T17:38:57.826Z,100107.38
2022-09-29T17:40:33.373Z,100109.59
2022-09-29T17:42:04.869Z,100113.28
2022-09-29T17:43:36.567Z,100118.59
2022-09-29T17:45:08.363Z,100116.78
2022-09-29T17:46:39.880Z,100114.66
2022-09-29T17:48:12.084Z,100120.28
2022-09-29T17:49:44.105Z,100124.50
2022-09-29T17:51:18.081Z,100131.78
2022-09-29T17:52:49.627Z,100135.56
2022-09-29T17:54:26.042Z,100133.91
2022-09-29T17:55:58.945Z,100140.06
2022-09-29T17:57:32.248Z,100132.31
2022-09-29T17:59:05.454Z,100141.41
2022-09-29T18:00:38.354Z,100141.50
2022-09-29T18:02:11.336Z,100141.69
2022-09-29T18:03:42.847Z,100142.00
2022-09-29T18:05:14.489Z,100143.53
2022-09-29T18:06:45.927Z,100142.31
2022-09-29T18:08:18.194Z,100149.91
2022-09-29T18:09:49.751Z,100150.50
2022-09-29T18:11:23.269Z,100152.66
2022-09-29T18:12:55.114Z,100149.44
2022-09-29T18:14:26.589Z,100150.47
2022-09-29T18:15:58.511Z,100156.81
2022-09-29T18:17:30.038Z,100155.00
2022-09-29T18:19:01.615Z,100163.81
2022-09-29T18:20:34.191Z,100161.34
2022-09-29T18:22:06.712Z,100164.66
2022-09-29T18:23:38.732Z,100170.53
2022-09-29T18:25:10.346Z,100166.63
2022-09-29T18:26:45.043Z,100174.75
2022-09-29T18:28:17.375Z,100163.31
2022-09-29T18:29:48.870Z,100171.63
2022-09-29T18:31:23.409Z,100186.69
2022-09-29T18:32:55.973Z,100180.81
2022-09-29T18:34:30.915Z,100175.63
2022-09-29T18:36:02.406Z,100179.13
2022-09-29T18:37:33.874Z,100187.81
2022-09-29T18:39:05.382Z,100178.00